Time;durP1;ratioP1;P1;durP2;ratioP2;P2;SDS_P1;SDS_P2;PMS_P1;PMS_P2;Temp;Humidity;BMP_temperature;BMP_pressure;BME280_temperature;BME280_humidity;BME280_pressure;Samples;Min_cycle;Max_cycle;Signal;HPM_P1;HPM_P2
2021/05/06 00:09:58;;;;;;;3.67;2.50;;;;;;;;;;5004948;28;20597;-43
2021/05/06 00:31:57;;;;;;;3.00;2.70;;;;;;;;;;5010411;28;20664;-44
2021/05/06 00:34:22;;;;;;;2.90;2.43;;;;;;;;;;5002868;28;20600;-44
2021/05/06 00:36:48;;;;;;;2.83;2.57;;;;;;;;;;5009824;28;21181;-44
2021/05/06 00:39:21;;;;;;;3.13;2.93;;;;;;;;;;5009467;28;20178;-45
2021/05/06 00:45:09;;;;;;;2.80;2.60;;;;;;;;;;5006776;28;20576;-45
2021/05/06 00:58:23;;;;;;;2.87;2.67;;;;;;;;;;5008871;28;20598;-44
2021/05/06 01:06:00;;;;;;;3.67;3.43;;;;;;;;;;5006971;28;20172;-44
2021/05/06 01:08:31;;;;;;;3.10;2.90;;;;;;;;;;5008876;28;20599;-43
2021/05/06 01:11:04;;;;;;;3.20;3.00;;;;;;;;;;5004884;28;20633;-44
2021/05/06 01:13:32;;;;;;;3.17;2.87;;;;;;;;;;4995800;28;20739;-44
2021/05/06 01:15:57;;;;;;;4.03;3.53;;;;;;;;;;5007619;28;20714;-44
2021/05/06 01:18:22;;;;;;;3.87;3.67;;;;;;;;;;4998713;28;21003;-44
2021/05/06 01:20:56;;;;;;;4.00;3.53;;;;;;;;;;5009119;28;20694;-45
2021/05/06 01:23:23;;;;;;;3.53;3.33;;;;;;;;;;5008707;28;20597;-43
2021/05/06 01:25:54;;;;;;;4.03;3.73;;;;;;;;;;5008261;28;20977;-44
2021/05/06 01:28:22;;;;;;;4.20;3.80;;;;;;;;;;5008742;28;20605;-43
2021/05/06 01:30:54;;;;;;;3.90;3.50;;;;;;;;;;5003611;28;20609;-44
2021/05/06 01:33:34;;;;;;;3.80;3.40;;;;;;;;;;5009426;28;20634;-44
2021/05/06 01:36:04;;;;;;;4.73;4.20;;;;;;;;;;5007399;28;20615;-44
2021/05/06 01:43:56;;;;;;;3.53;3.33;;;;;;;;;;5005521;28;21455;-44
2021/05/06 01:46:38;;;;;;;3.63;3.43;;;;;;;;;;5005895;28;20704;-44
2021/05/06 01:59:53;;;;;;;3.40;3.20;;;;;;;;;;5021304;28;20700;-45
2021/05/06 02:02:18;;;;;;;3.90;3.50;;;;;;;;;;5004688;28;20643;-44
2021/05/06 02:04:43;;;;;;;3.90;3.60;;;;;;;;;;5002526;28;21008;-44
2021/05/06 02:07:09;;;;;;;4.13;3.83;;;;;;;;;;5007755;28;20187;-46
2021/05/06 02:09:34;;;;;;;4.07;3.63;;;;;;;;;;5008539;28;20189;-44
2021/05/06 02:11:59;;;;;;;3.80;3.50;;;;;;;;;;5006224;28;20340;-44
2021/05/06 02:14:25;;;;;;;3.50;3.30;;;;;;;;;;5006680;28;20185;-44
2021/05/06 02:16:50;;;;;;;3.50;3.30;;;;;;;;;;5008558;28;20182;-45
2021/05/06 02:19:24;;;;;;;3.87;3.43;;;;;;;;;;4999839;28;20180;-45
2021/05/06 02:21:49;;;;;;;3.33;3.13;;;;;;;;;;5007211;28;20207;-44
2021/05/06 02:24:15;;;;;;;5.70;4.23;;;;;;;;;;5007561;28;20590;-45
2021/05/06 02:26:40;;;;;;;3.90;3.60;;;;;;;;;;5007706;28;20226;-44
2021/05/06 02:29:05;;;;;;;4.07;3.73;;;;;;;;;;5008252;28;20174;-45
2021/05/06 02:31:30;;;;;;;4.43;4.03;;;;;;;;;;5007224;28;20189;-45
2021/05/06 02:33:55;;;;;;;3.90;3.60;;;;;;;;;;5006678;28;20696;-45
2021/05/06 02:36:20;;;;;;;4.17;3.87;;;;;;;;;;5007223;28;20189;-45
2021/05/06 02:38:45;;;;;;;3.72;3.45;;;;;;;;;;5004547;28;20187;-44
2021/05/06 02:41:11;;;;;;;4.00;3.70;;;;;;;;;;5007436;28;20207;-44
2021/05/06 02:43:36;;;;;;;4.63;4.17;;;;;;;;;;5005118;28;20222;-44
2021/05/06 02:46:01;;;;;;;4.35;4.05;;;;;;;;;;5007448;28;20436;-44
2021/05/06 02:48:26;;;;;;;3.63;3.40;;;;;;;;;;5008231;28;20178;-44
2021/05/06 02:50:58;;;;;;;4.33;4.03;;;;;;;;;;5006980;28;20175;-43
2021/05/06 02:53:27;;;;;;;4.50;4.10;;;;;;;;;;5005876;28;20189;-43
2021/05/06 03:04:05;;;;;;;4.53;4.17;;;;;;;;;;4998428;28;20605;-45
2021/05/06 03:06:35;;;;;;;4.43;4.13;;;;;;;;;;5007060;28;20593;-44
2021/05/06 03:09:08;;;;;;;4.20;3.90;;;;;;;;;;5007496;28;20166;-44
2021/05/06 03:11:46;;;;;;;4.37;4.00;;;;;;;;;;5004694;28;20659;-45
2021/05/06 03:24:54;;;;;;;4.80;4.50;;;;;;;;;;5003569;28;20732;-44
2021/05/06 03:27:20;;;;;;;5.07;4.67;;;;;;;;;;5005451;28;21064;-45
2021/05/06 03:32:45;;;;;;;4.87;3.90;;;;;;;;;;4998449;28;20624;-43
2021/05/06 03:35:16;;;;;;;4.87;4.47;;;;;;;;;;5006644;28;20962;-43
2021/05/06 03:46:17;;;;;;;4.90;4.60;;;;;;;;;;4997453;28;20610;-44
2021/05/06 04:16:43;;;;;;;4.97;4.47;;;;;;;;;;5001827;28;21546;-45
2021/05/06 04:27:42;;;;;;;3.90;3.70;;;;;;;;;;5009740;28;20609;-43
2021/05/06 04:37:44;;;;;;;3.60;3.30;;;;;;;;;;5004500;28;20617;-44
2021/05/06 04:40:49;;;;;;;4.17;3.87;;;;;;;;;;5006159;28;21162;-46
2021/05/06 04:46:21;;;;;;;4.10;3.80;;;;;;;;;;5002993;28;20697;-44
2021/05/06 05:04:30;;;;;;;3.63;3.43;;;;;;;;;;5001156;28;20199;-44
2021/05/06 05:07:10;;;;;;;4.20;3.80;;;;;;;;;;4999716;28;20603;-44
2021/05/06 05:10:00;;;;;;;4.70;3.70;;;;;;;;;;4995600;28;20604;-44
2021/05/06 05:20:20;;;;;;;3.30;3.00;;;;;;;;;;4997042;28;20591;-44
2021/05/06 05:25:38;;;;;;;3.63;3.43;;;;;;;;;;4997172;28;20906;-44
2021/05/06 05:28:04;;;;;;;3.30;3.10;;;;;;;;;;4997726;28;21236;-44
2021/05/06 05:30:31;;;;;;;4.10;3.70;;;;;;;;;;5005519;28;20665;-44
2021/05/06 05:32:57;;;;;;;4.13;3.83;;;;;;;;;;4999756;28;20609;-44
2021/05/06 05:38:07;;;;;;;5.23;3.50;;;;;;;;;;4999605;28;20591;-43
2021/05/06 05:56:04;;;;;;;6.03;3.80;;;;;;;;;;4980008;28;20591;-44
2021/05/06 05:58:29;;;;;;;4.05;3.75;;;;;;;;;;4980108;28;20573;-44
2021/05/06 06:00:54;;;;;;;3.93;3.60;;;;;;;;;;4994202;28;20195;-44
2021/05/06 06:03:21;;;;;;;4.10;3.80;;;;;;;;;;5005150;28;20228;-44
2021/05/06 06:05:46;;;;;;;3.40;3.17;;;;;;;;;;5002809;28;20256;-44
2021/05/06 06:08:11;;;;;;;4.00;3.70;;;;;;;;;;4999234;28;20714;-43
2021/05/06 06:10:36;;;;;;;3.93;3.63;;;;;;;;;;4998972;28;20583;-46
2021/05/06 06:13:02;;;;;;;3.65;3.40;;;;;;;;;;5001744;28;20236;-43
2021/05/06 06:18:18;;;;;;;4.00;3.70;;;;;;;;;;5001162;28;20212;-43
2021/05/06 06:20:46;;;;;;;4.57;3.77;;;;;;;;;;4994059;28;20599;-43
2021/05/06 06:23:12;;;;;;;3.53;3.33;;;;;;;;;;4999512;28;20595;-43
2021/05/06 06:25:37;;;;;;;4.00;3.70;;;;;;;;;;4992932;28;20596;-44
2021/05/06 06:28:06;;;;;;;4.40;3.72;;;;;;;;;;4998929;28;20213;-42
2021/05/06 06:30:34;;;;;;;3.53;3.33;;;;;;;;;;4996488;28;20263;-42
2021/05/06 06:32:59;;;;;;;3.67;3.37;;;;;;;;;;5005591;28;20573;-43
2021/05/06 06:35:24;;;;;;;3.58;3.30;;;;;;;;;;5005211;28;20599;-45
2021/05/06 06:37:49;;;;;;;3.90;3.70;;;;;;;;;;5004237;28;20200;-43
2021/05/06 06:40:14;;;;;;;4.40;4.00;;;;;;;;;;5003549;28;20692;-44
2021/05/06 06:42:40;;;;;;;3.23;3.03;;;;;;;;;;4997255;28;20757;-43
2021/05/06 06:45:05;;;;;;;3.60;3.30;;;;;;;;;;4987707;28;20201;-44
2021/05/06 06:47:30;;;;;;;3.40;3.10;;;;;;;;;;4989629;28;20644;-44
2021/05/06 06:49:56;;;;;;;3.63;3.33;;;;;;;;;;4994335;28;20174;-44
2021/05/06 06:52:21;;;;;;;4.05;3.30;;;;;;;;;;5004922;28;20268;-43
2021/05/06 06:54:47;;;;;;;6.00;3.72;;;;;;;;;;5001449;28;20189;-44
2021/05/06 06:57:12;;;;;;;3.70;3.10;;;;;;;;;;5005202;28;20181;-45
2021/05/06 06:59:37;;;;;;;3.40;3.20;;;;;;;;;;5003785;28;20599;-45
2021/05/06 07:02:02;;;;;;;3.37;3.17;;;;;;;;;;5000660;28;20296;-44
2021/05/06 07:04:28;;;;;;;3.53;3.23;;;;;;;;;;5003464;28;20215;-44
2021/05/06 07:06:53;;;;;;;4.17;3.30;;;;;;;;;;5005337;28;20174;-43
2021/05/06 07:09:19;;;;;;;3.30;3.10;;;;;;;;;;5000580;28;20608;-44
2021/05/06 07:11:44;;;;;;;3.97;2.73;;;;;;;;;;4997378;28;20228;-44
2021/05/06 07:14:09;;;;;;;3.95;3.67;;;;;;;;;;5000386;28;20177;-44
2021/05/06 07:16:34;;;;;;;3.25;2.95;;;;;;;;;;5003265;28;20207;-44
2021/05/06 07:18:59;;;;;;;3.38;3.15;;;;;;;;;;5003937;28;20177;-44
2021/05/06 07:21:25;;;;;;;3.30;3.10;;;;;;;;;;5001964;28;20195;-44
2021/05/06 07:23:53;;;;;;;3.87;3.67;;;;;;;;;;4999359;28;20173;-45
2021/05/06 07:26:19;;;;;;;3.63;3.43;;;;;;;;;;4992449;28;20175;-45
2021/05/06 07:28:44;;;;;;;5.67;3.63;;;;;;;;;;4986038;28;20588;-43
2021/05/06 07:31:10;;;;;;;3.40;3.10;;;;;;;;;;4994387;28;20583;-44
2021/05/06 07:33:36;;;;;;;4.93;4.40;;;;;;;;;;5003816;28;20180;-44
2021/05/06 07:36:01;;;;;;;8.77;3.57;;;;;;;;;;4990171;28;21013;-43
2021/05/06 07:38:27;;;;;;;3.30;3.10;;;;;;;;;;4987814;28;20369;-43
2021/05/06 07:40:53;;;;;;;4.90;4.40;;;;;;;;;;5003297;28;20180;-44
2021/05/06 07:43:18;;;;;;;3.57;3.37;;;;;;;;;;5004290;28;20596;-44
2021/05/06 07:45:43;;;;;;;3.40;3.10;;;;;;;;;;5003707;28;20209;-44
2021/05/06 07:48:08;;;;;;;2.93;2.60;;;;;;;;;;5005825;28;21056;-44
2021/05/06 07:50:34;;;;;;;3.93;2.90;;;;;;;;;;5007265;28;20179;-44
2021/05/06 07:53:05;;;;;;;4.43;4.03;;;;;;;;;;5004067;28;20305;-45
2021/05/06 07:55:31;;;;;;;3.10;2.90;;;;;;;;;;5000913;28;20215;-44
2021/05/06 07:57:57;;;;;;;4.20;3.77;;;;;;;;;;5001824;28;20644;-44
2021/05/06 08:00:22;;;;;;;5.00;4.60;;;;;;;;;;5002930;28;20601;-45
2021/05/06 08:02:49;;;;;;;5.57;4.50;;;;;;;;;;5004249;28;20583;-44
2021/05/06 08:05:15;;;;;;;7.13;3.77;;;;;;;;;;5007210;28;20571;-44
2021/05/06 08:07:41;;;;;;;3.83;3.33;;;;;;;;;;5003703;28;20682;-44
2021/05/06 08:10:06;;;;;;;2.50;2.27;;;;;;;;;;5001658;28;20203;-44
2021/05/06 08:12:32;;;;;;;3.87;3.20;;;;;;;;;;5003276;28;20703;-44
2021/05/06 08:14:57;;;;;;;2.83;2.63;;;;;;;;;;5005065;28;20175;-45
2021/05/06 08:17:23;;;;;;;3.17;2.88;;;;;;;;;;5005399;28;20186;-45
2021/05/06 08:19:48;;;;;;;2.50;2.30;;;;;;;;;;5003123;28;20187;-45
2021/05/06 08:22:14;;;;;;;2.33;2.13;;;;;;;;;;5001413;28;20643;-45
2021/05/06 08:24:39;;;;;;;2.20;2.00;;;;;;;;;;5006673;28;20537;-45
2021/05/06 08:27:04;;;;;;;2.33;2.13;;;;;;;;;;5005181;28;20296;-43
2021/05/06 08:29:30;;;;;;;3.47;2.23;;;;;;;;;;5002518;28;20206;-44
2021/05/06 08:31:55;;;;;;;3.63;2.07;;;;;;;;;;5000359;28;20186;-44
2021/05/06 08:34:20;;;;;;;2.17;2.07;;;;;;;;;;5004756;28;20227;-44
2021/05/06 08:36:45;;;;;;;3.13;1.97;;;;;;;;;;5006575;28;20170;-44
2021/05/06 08:39:11;;;;;;;2.97;2.42;;;;;;;;;;5004300;28;20668;-44
2021/05/06 08:41:36;;;;;;;2.77;2.57;;;;;;;;;;5003118;28;20211;-45
2021/05/06 08:44:03;;;;;;;1.90;1.80;;;;;;;;;;5002869;28;20188;-45
2021/05/06 08:46:34;;;;;;;2.63;2.27;;;;;;;;;;5001196;28;20246;-45
2021/05/06 08:49:00;;;;;;;2.10;2.00;;;;;;;;;;5000313;28;20581;-45
2021/05/06 08:51:27;;;;;;;2.50;2.20;;;;;;;;;;5006246;28;20626;-44
2021/05/06 08:53:52;;;;;;;2.10;1.90;;;;;;;;;;5004415;28;20231;-44
2021/05/06 08:56:17;;;;;;;2.10;1.83;;;;;;;;;;5002242;28;20606;-44
2021/05/06 08:58:43;;;;;;;5.03;2.27;;;;;;;;;;5000387;28;21057;-43
2021/05/06 09:01:08;;;;;;;2.10;1.95;;;;;;;;;;5000253;28;20176;-45
2021/05/06 09:03:33;;;;;;;2.13;2.03;;;;;;;;;;5004408;28;20239;-44
2021/05/06 09:06:06;;;;;;;2.10;2.00;;;;;;;;;;5003913;28;21063;-44
2021/05/06 09:08:39;;;;;;;2.80;2.10;;;;;;;;;;5004064;28;20199;-47
2021/05/06 09:11:04;;;;;;;4.47;2.77;;;;;;;;;;4992859;28;20625;-44
2021/05/06 09:13:30;;;;;;;2.57;2.37;;;;;;;;;;5000609;28;20751;-44
2021/05/06 09:15:55;;;;;;;2.10;2.00;;;;;;;;;;5000361;28;20180;-44
2021/05/06 09:18:43;;;;;;;3.00;2.77;;;;;;;;;;5004005;28;20598;-45
2021/05/06 09:21:10;;;;;;;2.97;2.67;;;;;;;;;;5003513;28;20865;-45
2021/05/06 09:23:36;;;;;;;2.10;1.90;;;;;;;;;;5005245;28;20678;-44
2021/05/06 09:26:05;;;;;;;2.60;2.17;;;;;;;;;;4980809;28;21077;-43
2021/05/06 09:28:31;;;;;;;3.00;2.70;;;;;;;;;;4980549;28;20583;-45
2021/05/06 09:30:59;;;;;;;3.00;2.70;;;;;;;;;;4991945;28;20636;-44
2021/05/06 09:33:28;;;;;;;2.67;2.47;;;;;;;;;;5002132;28;21153;-44
2021/05/06 09:35:54;;;;;;;2.30;2.10;;;;;;;;;;5003291;28;20670;-45
2021/05/06 09:38:23;;;;;;;5.50;5.00;;;;;;;;;;5005605;28;21014;-44
2021/05/06 09:40:48;;;;;;;2.60;2.40;;;;;;;;;;4999957;28;20289;-45
2021/05/06 09:43:21;;;;;;;2.80;2.60;;;;;;;;;;4984100;28;21257;-45
2021/05/06 09:45:46;;;;;;;4.50;2.50;;;;;;;;;;4995325;28;20187;-44
2021/05/06 09:48:12;;;;;;;3.20;2.90;;;;;;;;;;5003961;28;20617;-44
2021/05/06 09:50:38;;;;;;;2.33;2.13;;;;;;;;;;5004170;28;20179;-44
2021/05/06 09:53:08;;;;;;;5.63;2.80;;;;;;;;;;5003345;28;21183;-44
2021/05/06 09:55:34;;;;;;;3.17;2.90;;;;;;;;;;4987003;28;20697;-45
2021/05/06 09:58:12;;;;;;;2.53;2.33;;;;;;;;;;4980073;28;20734;-45
2021/05/06 10:00:37;;;;;;;3.07;2.77;;;;;;;;;;4989785;28;20184;-45
2021/05/06 10:03:08;;;;;;;2.85;2.63;;;;;;;;;;5002785;28;20700;-45
2021/05/06 10:05:35;;;;;;;2.63;2.27;;;;;;;;;;5004872;28;20747;-45
2021/05/06 10:08:01;;;;;;;2.87;2.60;;;;;;;;;;4992682;28;20694;-43
2021/05/06 10:10:26;;;;;;;2.57;2.37;;;;;;;;;;4996348;28;20761;-45
2021/05/06 10:12:51;;;;;;;2.20;2.00;;;;;;;;;;4983033;28;20309;-44
2021/05/06 10:15:18;;;;;;;2.10;2.00;;;;;;;;;;4984174;28;20181;-44
2021/05/06 10:17:43;;;;;;;1.80;1.70;;;;;;;;;;4998827;28;20226;-44
2021/05/06 10:20:08;;;;;;;2.23;2.13;;;;;;;;;;4996111;28;21454;-44
2021/05/06 10:22:34;;;;;;;2.53;2.40;;;;;;;;;;5004151;28;20223;-44
2021/05/06 10:25:03;;;;;;;3.03;2.70;;;;;;;;;;4996811;28;20272;-43
2021/05/06 10:27:29;;;;;;;2.70;2.50;;;;;;;;;;4987005;28;20188;-44
2021/05/06 10:29:58;;;;;;;2.37;2.10;;;;;;;;;;4987805;28;20605;-44
2021/05/06 10:32:24;;;;;;;2.73;2.53;;;;;;;;;;4987872;28;20177;-44
2021/05/06 10:34:54;;;;;;;2.53;2.33;;;;;;;;;;4989639;28;20979;-45
2021/05/06 10:37:23;;;;;;;2.50;2.30;;;;;;;;;;4989079;28;20682;-44
2021/05/06 10:39:48;;;;;;;2.40;2.30;;;;;;;;;;4999582;28;20611;-46
2021/05/06 10:42:28;;;;;;;3.17;2.60;;;;;;;;;;5008525;28;20650;-44
2021/05/06 10:45:22;;;;;;;2.47;2.27;;;;;;;;;;5014815;28;20618;-45
2021/05/06 10:47:50;;;;;;;2.90;2.40;;;;;;;;;;5005864;28;21133;-45
2021/05/06 10:50:17;;;;;;;2.70;2.50;;;;;;;;;;4991217;28;20607;-45
2021/05/06 10:53:08;;;;;;;6.40;3.07;;;;;;;;;;4988774;28;20590;-44
2021/05/06 10:55:47;;;;;;;2.77;2.57;;;;;;;;;;5000853;28;20602;-44
2021/05/06 10:58:21;;;;;;;2.97;2.77;;;;;;;;;;4988699;28;21127;-44
2021/05/06 11:00:55;;;;;;;4.00;2.93;;;;;;;;;;4989784;28;21163;-44
2021/05/06 11:03:24;;;;;;;2.53;2.33;;;;;;;;;;4994124;28;20711;-44
2021/05/06 11:05:49;;;;;;;2.80;2.60;;;;;;;;;;4994137;28;21462;-44
2021/05/06 11:08:17;;;;;;;2.80;2.60;;;;;;;;;;5000957;28;20605;-44
2021/05/06 11:10:42;;;;;;;2.40;2.30;;;;;;;;;;5005183;28;20200;-44
2021/05/06 11:13:07;;;;;;;3.37;2.73;;;;;;;;;;4994940;28;20668;-44
2021/05/06 11:15:33;;;;;;;3.30;2.75;;;;;;;;;;5000881;28;20757;-44
2021/05/06 11:17:59;;;;;;;4.53;2.50;;;;;;;;;;4993808;28;20180;-44
2021/05/06 11:20:27;;;;;;;4.00;2.87;;;;;;;;;;5005994;28;20623;-42
2021/05/06 11:22:55;;;;;;;3.50;2.57;;;;;;;;;;5001526;28;21211;-43
2021/05/06 11:25:26;;;;;;;3.63;2.97;;;;;;;;;;5005726;28;20607;-43
2021/05/06 11:27:52;;;;;;;2.87;2.67;;;;;;;;;;5008536;28;20682;-44
2021/05/06 11:30:30;;;;;;;2.37;2.17;;;;;;;;;;5007602;28;20688;-45
2021/05/06 11:32:55;;;;;;;5.50;3.20;;;;;;;;;;5007513;28;20242;-45
2021/05/06 11:35:20;;;;;;;2.70;2.50;;;;;;;;;;5008089;28;21098;-45
2021/05/06 11:37:55;;;;;;;3.40;2.40;;;;;;;;;;4994816;28;20263;-45
2021/05/06 11:40:27;;;;;;;2.00;1.90;;;;;;;;;;4995859;28;20191;-44
2021/05/06 11:42:53;;;;;;;3.53;2.53;;;;;;;;;;5000401;28;20642;-44
2021/05/06 11:45:20;;;;;;;3.27;2.77;;;;;;;;;;5001610;28;20607;-44
2021/05/06 11:47:46;;;;;;;2.23;2.13;;;;;;;;;;5002529;28;20649;-51
2021/05/06 11:50:22;;;;;;;2.20;2.10;;;;;;;;;;5006392;28;20596;-44
2021/05/06 11:52:47;;;;;;;2.90;2.47;;;;;;;;;;4988690;28;20197;-44
2021/05/06 11:55:25;;;;;;;2.63;2.43;;;;;;;;;;5000300;28;20602;-44
2021/05/06 11:57:51;;;;;;;3.90;2.50;;;;;;;;;;4984542;28;20181;-45
2021/05/06 12:00:16;;;;;;;2.60;2.40;;;;;;;;;;4993029;28;20595;-45
2021/05/06 12:02:41;;;;;;;2.87;2.30;;;;;;;;;;4989008;28;20979;-45
2021/05/06 12:05:07;;;;;;;4.07;2.47;;;;;;;;;;4993443;28;20175;-45
2021/05/06 12:07:32;;;;;;;3.40;2.20;;;;;;;;;;4988886;28;20217;-45
2021/05/06 12:10:06;;;;;;;2.17;1.97;;;;;;;;;;5002318;28;20247;-45
2021/05/06 12:12:31;;;;;;;2.17;1.97;;;;;;;;;;4988617;28;20431;-45
2021/05/06 12:14:57;;;;;;;3.08;2.83;;;;;;;;;;4987818;28;20689;-45
2021/05/06 12:17:22;;;;;;;2.20;2.00;;;;;;;;;;4999230;28;20189;-44
2021/05/06 12:19:48;;;;;;;2.30;2.20;;;;;;;;;;4999516;28;20598;-44
2021/05/06 12:22:14;;;;;;;2.17;1.97;;;;;;;;;;4997024;28;20236;-45
2021/05/06 12:24:44;;;;;;;3.90;2.37;;;;;;;;;;5008021;28;20606;-44
2021/05/06 12:27:16;;;;;;;2.20;2.10;;;;;;;;;;5008210;28;20694;-45
2021/05/06 12:29:41;;;;;;;2.27;2.10;;;;;;;;;;5004391;28;20617;-45
2021/05/06 12:32:14;;;;;;;2.80;2.60;;;;;;;;;;5004699;28;20711;-44
2021/05/06 12:34:40;;;;;;;2.27;2.07;;;;;;;;;;5004225;28;20281;-44
2021/05/06 12:37:05;;;;;;;2.00;1.90;;;;;;;;;;4990698;28;20714;-44
2021/05/06 12:39:31;;;;;;;3.03;2.60;;;;;;;;;;4997228;28;20189;-43
2021/05/06 12:41:57;;;;;;;4.20;3.43;;;;;;;;;;5008230;28;20198;-44
2021/05/06 12:44:32;;;;;;;2.07;1.97;;;;;;;;;;5009109;28;20608;-44
2021/05/06 12:47:18;;;;;;;2.83;2.63;;;;;;;;;;4990429;28;21169;-44
2021/05/06 12:49:43;;;;;;;2.27;2.17;;;;;;;;;;5001234;28;20968;-43
2021/05/06 12:52:27;;;;;;;2.43;2.23;;;;;;;;;;4995286;28;20758;-45
2021/05/06 12:54:52;;;;;;;3.60;2.50;;;;;;;;;;4990715;28;20187;-45
2021/05/06 12:57:18;;;;;;;2.47;2.28;;;;;;;;;;4995568;28;20609;-45
2021/05/06 12:59:49;;;;;;;2.80;2.50;;;;;;;;;;4993814;28;20192;-45
2021/05/06 13:02:16;;;;;;;2.90;2.33;;;;;;;;;;4994515;28;20725;-44
2021/05/06 13:04:42;;;;;;;2.80;2.57;;;;;;;;;;5001538;28;21046;-44
2021/05/06 13:07:07;;;;;;;5.73;2.20;;;;;;;;;;5009759;28;20725;-45
2021/05/06 13:09:38;;;;;;;2.30;2.20;;;;;;;;;;5009849;28;20631;-45
2021/05/06 13:12:10;;;;;;;3.73;2.20;;;;;;;;;;5009084;28;20251;-44
2021/05/06 13:14:46;;;;;;;2.93;2.30;;;;;;;;;;5009931;28;20613;-45
2021/05/06 13:17:21;;;;;;;3.73;2.20;;;;;;;;;;5009357;28;20607;-44
2021/05/06 13:19:46;;;;;;;3.67;3.10;;;;;;;;;;5006991;28;20602;-44
2021/05/06 13:22:11;;;;;;;2.50;1.85;;;;;;;;;;5007644;28;20921;-44
2021/05/06 13:24:40;;;;;;;3.30;2.27;;;;;;;;;;5009392;28;20541;-44
2021/05/06 13:27:12;;;;;;;2.50;2.27;;;;;;;;;;5009768;28;20207;-44
2021/05/06 13:29:45;;;;;;;3.47;2.07;;;;;;;;;;5008345;28;21021;-45
2021/05/06 13:32:10;;;;;;;2.80;2.00;;;;;;;;;;5006446;28;21009;-44
2021/05/06 13:34:35;;;;;;;2.00;1.90;;;;;;;;;;5009947;28;20637;-45
2021/05/06 13:37:03;;;;;;;1.93;1.83;;;;;;;;;;5009227;28;20179;-45
2021/05/06 13:39:29;;;;;;;2.20;2.00;;;;;;;;;;5009546;28;20184;-44
2021/05/06 13:41:54;;;;;;;2.13;2.00;;;;;;;;;;4997864;28;20637;-44
2021/05/06 13:44:22;;;;;;;3.30;2.43;;;;;;;;;;5008679;28;20195;-47
2021/05/06 13:46:54;;;;;;;2.03;1.93;;;;;;;;;;5008304;28;20183;-45
2021/05/06 13:49:23;;;;;;;2.17;1.90;;;;;;;;;;5008405;28;20602;-44
2021/05/06 13:51:49;;;;;;;1.90;1.80;;;;;;;;;;5002182;28;21206;-45
2021/05/06 13:54:14;;;;;;;2.00;1.90;;;;;;;;;;5006772;28;20832;-45
2021/05/06 13:56:40;;;;;;;2.13;1.93;;;;;;;;;;4997558;28;20202;-44
2021/05/06 13:59:05;;;;;;;2.33;2.23;;;;;;;;;;5005901;28;20238;-45
2021/05/06 14:01:30;;;;;;;4.20;2.43;;;;;;;;;;4993624;28;20200;-44
2021/05/06 14:03:56;;;;;;;2.43;2.33;;;;;;;;;;5001316;28;20182;-45
2021/05/06 14:06:31;;;;;;;2.57;2.37;;;;;;;;;;5006491;28;20176;-45
2021/05/06 14:08:56;;;;;;;2.30;2.20;;;;;;;;;;5003842;28;21278;-44
2021/05/06 14:11:22;;;;;;;2.37;2.27;;;;;;;;;;5007789;28;20732;-44
2021/05/06 14:13:47;;;;;;;3.50;2.47;;;;;;;;;;5008044;28;20268;-44
2021/05/06 14:16:13;;;;;;;2.83;2.63;;;;;;;;;;5004542;28;20183;-45
2021/05/06 14:18:38;;;;;;;2.50;2.30;;;;;;;;;;4990269;28;20199;-44
2021/05/06 14:21:06;;;;;;;1.90;1.80;;;;;;;;;;4983129;28;20573;-44
2021/05/06 14:23:39;;;;;;;3.13;2.50;;;;;;;;;;4991290;28;20263;-44
2021/05/06 14:26:04;;;;;;;2.43;2.27;;;;;;;;;;4998314;28;20609;-44
2021/05/06 14:28:30;;;;;;;2.40;2.20;;;;;;;;;;5000665;28;20602;-44
2021/05/06 14:30:55;;;;;;;3.30;2.10;;;;;;;;;;4999318;28;20581;-44
2021/05/06 14:33:20;;;;;;;2.57;2.37;;;;;;;;;;4994804;28;20197;-44
2021/05/06 14:35:45;;;;;;;3.00;2.70;;;;;;;;;;4994535;28;20181;-44
2021/05/06 14:38:10;;;;;;;2.70;2.50;;;;;;;;;;4996249;28;20185;-44
2021/05/06 14:40:36;;;;;;;2.60;2.40;;;;;;;;;;5000738;28;20182;-44
2021/05/06 14:43:02;;;;;;;3.23;2.17;;;;;;;;;;4998743;28;20205;-44
2021/05/06 14:45:27;;;;;;;1.90;1.80;;;;;;;;;;4998216;28;20670;-43
2021/05/06 14:47:52;;;;;;;2.20;2.07;;;;;;;;;;4996484;28;20618;-44
2021/05/06 14:50:17;;;;;;;2.07;1.90;;;;;;;;;;4994896;28;20712;-46
2021/05/06 14:52:43;;;;;;;2.70;1.53;;;;;;;;;;5001988;28;20190;-44
2021/05/06 14:55:09;;;;;;;1.60;1.50;;;;;;;;;;5001695;28;20188;-45
2021/05/06 14:57:34;;;;;;;1.60;1.50;;;;;;;;;;4998013;28;20608;-44
2021/05/06 14:59:59;;;;;;;1.55;1.45;;;;;;;;;;5002111;28;20575;-45
2021/05/06 15:02:25;;;;;;;1.45;1.40;;;;;;;;;;5003414;28;20683;-44
2021/05/06 15:04:50;;;;;;;1.67;1.57;;;;;;;;;;5002038;28;20624;-43
2021/05/06 15:07:15;;;;;;;1.38;1.27;;;;;;;;;;4997722;28;20178;-44
2021/05/06 15:09:41;;;;;;;1.50;1.40;;;;;;;;;;5001896;28;20178;-44
2021/05/06 15:12:06;;;;;;;1.50;1.40;;;;;;;;;;5003434;28;20236;-45
2021/05/06 15:14:31;;;;;;;3.27;1.40;;;;;;;;;;5002300;28;20167;-45
2021/05/06 15:16:57;;;;;;;1.70;1.60;;;;;;;;;;5000081;28;20697;-44
2021/05/06 15:19:22;;;;;;;1.67;1.58;;;;;;;;;;4998243;28;20266;-44
2021/05/06 15:21:47;;;;;;;1.58;1.48;;;;;;;;;;4998028;28;20211;-44
2021/05/06 15:24:12;;;;;;;1.77;1.67;;;;;;;;;;5003517;28;20176;-44
2021/05/06 15:26:38;;;;;;;1.63;1.53;;;;;;;;;;5002960;28;20187;-44
2021/05/06 15:29:03;;;;;;;1.60;1.50;;;;;;;;;;4998023;28;20175;-45
2021/05/06 15:31:28;;;;;;;1.30;1.20;;;;;;;;;;4999549;28;20563;-45
2021/05/06 15:33:54;;;;;;;1.73;1.63;;;;;;;;;;5012857;28;20191;-44
2021/05/06 15:36:19;;;;;;;1.50;1.40;;;;;;;;;;5004187;28;20191;-46
2021/05/06 15:38:44;;;;;;;1.60;1.50;;;;;;;;;;5000932;28;20773;-44
2021/05/06 15:41:09;;;;;;;1.70;1.60;;;;;;;;;;4985207;28;20176;-45
2021/05/06 15:43:35;;;;;;;1.60;1.50;;;;;;;;;;5001448;28;20549;-44
2021/05/06 15:46:00;;;;;;;2.20;1.87;;;;;;;;;;5003470;28;20189;-44
2021/05/06 15:48:25;;;;;;;2.50;1.77;;;;;;;;;;5006534;28;20880;-44
2021/05/06 15:50:50;;;;;;;3.50;1.83;;;;;;;;;;5006751;28;20178;-44
2021/05/06 15:53:15;;;;;;;1.50;1.40;;;;;;;;;;5002346;28;20312;-44
2021/05/06 15:55:40;;;;;;;2.78;1.73;;;;;;;;;;5003153;28;20650;-44
2021/05/06 15:58:07;;;;;;;1.60;1.50;;;;;;;;;;5024625;28;20175;-45
2021/05/06 16:00:33;;;;;;;1.73;1.63;;;;;;;;;;5021242;28;20199;-44
2021/05/06 16:03:08;;;;;;;1.90;1.80;;;;;;;;;;5012756;28;20638;-44
2021/05/06 16:05:37;;;;;;;1.77;1.67;;;;;;;;;;4998083;28;20650;-45
2021/05/06 16:08:02;;;;;;;1.90;1.80;;;;;;;;;;4983079;28;20586;-45
2021/05/06 16:10:28;;;;;;;1.80;1.70;;;;;;;;;;5003531;28;20619;-45
2021/05/06 16:12:53;;;;;;;1.45;1.40;;;;;;;;;;5004408;28;20227;-45
2021/05/06 16:15:19;;;;;;;1.75;1.65;;;;;;;;;;5004521;28;20175;-45
2021/05/06 16:17:44;;;;;;;1.80;1.70;;;;;;;;;;5000343;28;20547;-43
2021/05/06 16:20:21;;;;;;;1.97;1.87;;;;;;;;;;4982808;28;20184;-43
2021/05/06 16:22:47;;;;;;;1.67;1.57;;;;;;;;;;4987193;28;20200;-46
2021/05/06 16:25:13;;;;;;;1.73;1.63;;;;;;;;;;5005186;28;20604;-44
2021/05/06 16:27:39;;;;;;;1.67;1.57;;;;;;;;;;5006076;28;20242;-44
2021/05/06 16:30:06;;;;;;;1.60;1.37;;;;;;;;;;4985354;28;20593;-46
2021/05/06 16:32:31;;;;;;;2.00;1.90;;;;;;;;;;4990750;28;20661;-46
2021/05/06 16:34:57;;;;;;;2.13;2.03;;;;;;;;;;5005971;28;20590;-45
2021/05/06 16:37:34;;;;;;;2.10;2.00;;;;;;;;;;5000574;28;20180;-46
2021/05/06 16:40:16;;;;;;;1.60;1.50;;;;;;;;;;4993361;28;20609;-45
2021/05/06 16:45:09;;;;;;;1.57;1.47;;;;;;;;;;5004280;28;20581;-46
2021/05/06 16:47:34;;;;;;;2.03;1.93;;;;;;;;;;5005707;28;20652;-45
2021/05/06 16:50:00;;;;;;;1.70;1.60;;;;;;;;;;4986798;28;20178;-45
2021/05/06 16:52:26;;;;;;;2.03;1.80;;;;;;;;;;5003920;28;20236;-45
2021/05/06 16:54:51;;;;;;;2.03;1.70;;;;;;;;;;5004258;28;20188;-44
2021/05/06 16:57:16;;;;;;;1.70;1.60;;;;;;;;;;4997101;28;21330;-45
2021/05/06 16:59:42;;;;;;;1.90;1.80;;;;;;;;;;4993841;28;20190;-45
2021/05/06 17:02:07;;;;;;;1.60;1.50;;;;;;;;;;4985229;28;20256;-46
2021/05/06 17:04:32;;;;;;;1.60;1.50;;;;;;;;;;4989537;28;20290;-45
2021/05/06 17:06:59;;;;;;;2.17;1.97;;;;;;;;;;4995489;28;20175;-45
2021/05/06 17:09:24;;;;;;;2.00;1.90;;;;;;;;;;4996772;28;20628;-44
2021/05/06 17:11:49;;;;;;;2.00;1.90;;;;;;;;;;4996084;28;20663;-46
2021/05/06 17:14:14;;;;;;;2.03;1.93;;;;;;;;;;5001418;28;20184;-45
2021/05/06 17:16:39;;;;;;;1.87;1.77;;;;;;;;;;4998917;28;20186;-45
2021/05/06 17:19:05;;;;;;;2.20;2.10;;;;;;;;;;5005930;28;20194;-45
2021/05/06 17:21:30;;;;;;;2.00;1.90;;;;;;;;;;5006098;28;20306;-45
2021/05/06 17:23:55;;;;;;;2.63;2.43;;;;;;;;;;5004706;28;20663;-45
2021/05/06 17:26:21;;;;;;;2.13;2.03;;;;;;;;;;4994555;28;20273;-44
2021/05/06 17:28:46;;;;;;;2.47;2.27;;;;;;;;;;4989067;28;20640;-43
2021/05/06 17:31:12;;;;;;;2.27;2.10;;;;;;;;;;5004189;28;20190;-44
2021/05/06 17:33:37;;;;;;;2.60;2.40;;;;;;;;;;5001264;28;20185;-43
2021/05/06 17:36:02;;;;;;;2.70;2.50;;;;;;;;;;5004118;28;20649;-44
2021/05/06 17:38:28;;;;;;;2.50;2.40;;;;;;;;;;4996702;28;20179;-45
2021/05/06 17:40:53;;;;;;;3.20;2.30;;;;;;;;;;5003610;28;20187;-44
2021/05/06 17:43:19;;;;;;;2.17;2.07;;;;;;;;;;5001324;28;20787;-45
2021/05/06 17:45:44;;;;;;;2.10;2.00;;;;;;;;;;5001895;28;20218;-44
2021/05/06 17:48:09;;;;;;;3.17;2.53;;;;;;;;;;4996286;28;20185;-44
2021/05/06 17:50:35;;;;;;;2.67;2.43;;;;;;;;;;5003450;28;20178;-44
2021/05/06 17:53:00;;;;;;;2.43;2.30;;;;;;;;;;5002532;28;20257;-44
2021/05/06 17:55:25;;;;;;;2.60;2.40;;;;;;;;;;4997491;28;20175;-44